sensor_id;sensor_type;location;lat;lon;timestamp;P1;durP1;ratioP1;P2;durP2;ratioP2
21206;SDS011;10761;48.532;8.026;2022-08-01T00:01:43;3.53;;;1.90;;
21206;SDS011;10761;48.532;8.026;2022-08-01T00:04:08;5.43;;;1.85;;
21206;SDS011;10761;48.532;8.026;2022-08-01T00:06:34;3.47;;;1.95;;
21206;SDS011;10761;48.532;8.026;2022-08-01T00:09:00;2.53;;;2.10;;
21206;SDS011;10761;48.532;8.026;2022-08-01T00:11:26;3.58;;;2.00;;
21206;SDS011;10761;48.532;8.026;2022-08-01T00:13:51;2.15;;;1.85;;
21206;SDS011;10761;48.532;8.026;2022-08-01T00:16:17;2.65;;;2.10;;
21206;SDS011;10761;48.532;8.026;2022-08-01T00:18:43;2.20;;;2.00;;
21206;SDS011;10761;48.532;8.026;2022-08-01T00:21:09;7.35;;;2.00;;
21206;SDS011;10761;48.532;8.026;2022-08-01T00:23:34;2.95;;;2.13;;
21206;SDS011;10761;48.532;8.026;2022-08-01T00:26:00;4.38;;;2.20;;
21206;SDS011;10761;48.532;8.026;2022-08-01T00:28:25;5.55;;;2.35;;
21206;SDS011;10761;48.532;8.026;2022-08-01T00:30:51;2.92;;;2.20;;
21206;SDS011;10761;48.532;8.026;2022-08-01T00:33:17;2.33;;;2.10;;
21206;SDS011;10761;48.532;8.026;2022-08-01T00:35:42;4.55;;;2.63;;
21206;SDS011;10761;48.532;8.026;2022-08-01T00:38:08;3.33;;;2.28;;
21206;SDS011;10761;48.532;8.026;2022-08-01T00:40:34;2.67;;;2.17;;
21206;SDS011;10761;48.532;8.026;2022-08-01T00:43:00;3.05;;;2.45;;
21206;SDS011;10761;48.532;8.026;2022-08-01T00:45:25;3.38;;;2.42;;
21206;SDS011;10761;48.532;8.026;2022-08-01T00:47:51;3.67;;;2.35;;
21206;SDS011;10761;48.532;8.026;2022-08-01T00:50:17;3.33;;;2.40;;
21206;SDS011;10761;48.532;8.026;2022-08-01T00:52:42;3.65;;;2.30;;
21206;SDS011;10761;48.532;8.026;2022-08-01T00:55:09;4.47;;;2.47;;
21206;SDS011;10761;48.532;8.026;2022-08-01T00:57:37;7.13;;;2.15;;
21206;SDS011;10761;48.532;8.026;2022-08-01T01:00:04;2.65;;;2.20;;
21206;SDS011;10761;48.532;8.026;2022-08-01T01:02:31;2.55;;;2.28;;
21206;SDS011;10761;48.532;8.026;2022-08-01T01:04:57;2.85;;;2.22;;
21206;SDS011;10761;48.532;8.026;2022-08-01T01:07:29;2.58;;;2.35;;
21206;SDS011;10761;48.532;8.026;2022-08-01T01:10:04;4.72;;;2.20;;
21206;SDS011;10761;48.532;8.026;2022-08-01T01:12:38;2.92;;;2.30;;
21206;SDS011;10761;48.532;8.026;2022-08-01T01:17:41;3.03;;;2.30;;
21206;SDS011;10761;48.532;8.026;2022-08-01T01:20:12;4.13;;;2.53;;
21206;SDS011;10761;48.532;8.026;2022-08-01T01:22:54;2.30;;;2.10;;
21206;SDS011;10761;48.532;8.026;2022-08-01T01:30:41;2.38;;;2.13;;
21206;SDS011;10761;48.532;8.026;2022-08-01T01:33:09;3.50;;;2.42;;
21206;SDS011;10761;48.532;8.026;2022-08-01T01:35:38;2.33;;;2.13;;
21206;SDS011;10761;48.532;8.026;2022-08-01T01:38:29;3.80;;;2.47;;
21206;SDS011;10761;48.532;8.026;2022-08-01T01:40:58;4.97;;;2.47;;
21206;SDS011;10761;48.532;8.026;2022-08-01T01:43:27;4.70;;;2.17;;
21206;SDS011;10761;48.532;8.026;2022-08-01T01:45:54;3.10;;;2.22;;
21206;SDS011;10761;48.532;8.026;2022-08-01T01:48:21;2.60;;;2.30;;
21206;SDS011;10761;48.532;8.026;2022-08-01T01:50:50;3.30;;;2.28;;
21206;SDS011;10761;48.532;8.026;2022-08-01T01:53:17;4.40;;;2.00;;
21206;SDS011;10761;48.532;8.026;2022-08-01T01:55:46;2.70;;;2.20;;
21206;SDS011;10761;48.532;8.026;2022-08-01T01:58:14;2.70;;;2.42;;
21206;SDS011;10761;48.532;8.026;2022-08-01T02:00:41;2.50;;;2.22;;
21206;SDS011;10761;48.532;8.026;2022-08-01T02:03:10;2.28;;;1.92;;
21206;SDS011;10761;48.532;8.026;2022-08-01T02:05:37;2.45;;;2.28;;
21206;SDS011;10761;48.532;8.026;2022-08-01T02:08:04;2.67;;;2.30;;
21206;SDS011;10761;48.532;8.026;2022-08-01T02:10:32;2.53;;;2.20;;
21206;SDS011;10761;48.532;8.026;2022-08-01T02:13:01;4.03;;;2.47;;
21206;SDS011;10761;48.532;8.026;2022-08-01T02:15:32;3.25;;;2.28;;
21206;SDS011;10761;48.532;8.026;2022-08-01T02:18:03;3.55;;;2.20;;
21206;SDS011;10761;48.532;8.026;2022-08-01T02:20:30;2.95;;;2.28;;
21206;SDS011;10761;48.532;8.026;2022-08-01T02:23:01;3.45;;;2.42;;
21206;SDS011;10761;48.532;8.026;2022-08-01T02:25:38;2.45;;;2.28;;
21206;SDS011;10761;48.532;8.026;2022-08-01T02:28:09;2.83;;;2.50;;
21206;SDS011;10761;48.532;8.026;2022-08-01T02:30:39;4.10;;;2.30;;
21206;SDS011;10761;48.532;8.026;2022-08-01T02:33:12;5.30;;;2.65;;
21206;SDS011;10761;48.532;8.026;2022-08-01T02:35:42;2.83;;;2.30;;
21206;SDS011;10761;48.532;8.026;2022-08-01T02:38:11;2.88;;;2.42;;
21206;SDS011;10761;48.532;8.026;2022-08-01T02:40:39;4.20;;;2.10;;
21206;SDS011;10761;48.532;8.026;2022-08-01T02:43:07;3.85;;;2.08;;
21206;SDS011;10761;48.532;8.026;2022-08-01T02:45:37;2.72;;;2.30;;
21206;SDS011;10761;48.532;8.026;2022-08-01T02:48:10;3.00;;;2.47;;
21206;SDS011;10761;48.532;8.026;2022-08-01T02:50:39;2.50;;;2.30;;
21206;SDS011;10761;48.532;8.026;2022-08-01T02:53:09;3.83;;;2.15;;
21206;SDS011;10761;48.532;8.026;2022-08-01T02:55:38;3.15;;;2.50;;
21206;SDS011;10761;48.532;8.026;2022-08-01T02:58:06;3.45;;;2.30;;
21206;SDS011;10761;48.532;8.026;2022-08-01T03:00:34;2.67;;;2.40;;
21206;SDS011;10761;48.532;8.026;2022-08-01T03:03:01;3.50;;;2.60;;
21206;SDS011;10761;48.532;8.026;2022-08-01T03:05:28;2.78;;;2.33;;
21206;SDS011;10761;48.532;8.026;2022-08-01T03:07:57;2.90;;;2.45;;
21206;SDS011;10761;48.532;8.026;2022-08-01T03:10:26;4.03;;;2.58;;
21206;SDS011;10761;48.532;8.026;2022-08-01T03:12:52;5.45;;;2.70;;
21206;SDS011;10761;48.532;8.026;2022-08-01T03:15:19;2.40;;;2.15;;
21206;SDS011;10761;48.532;8.026;2022-08-01T03:17:47;2.65;;;2.28;;
21206;SDS011;10761;48.532;8.026;2022-08-01T03:20:16;3.80;;;2.00;;
21206;SDS011;10761;48.532;8.026;2022-08-01T03:22:45;3.15;;;2.25;;
21206;SDS011;10761;48.532;8.026;2022-08-01T03:25:13;2.28;;;2.13;;
21206;SDS011;10761;48.532;8.026;2022-08-01T03:27:40;4.03;;;2.60;;
21206;SDS011;10761;48.532;8.026;2022-08-01T03:30:08;3.03;;;2.40;;
21206;SDS011;10761;48.532;8.026;2022-08-01T03:32:35;4.13;;;2.38;;
21206;SDS011;10761;48.532;8.026;2022-08-01T03:35:01;3.03;;;2.40;;
21206;SDS011;10761;48.532;8.026;2022-08-01T03:37:28;2.80;;;2.50;;
21206;SDS011;10761;48.532;8.026;2022-08-01T03:40:06;4.63;;;2.58;;
21206;SDS011;10761;48.532;8.026;2022-08-01T03:42:37;3.47;;;2.40;;
21206;SDS011;10761;48.532;8.026;2022-08-01T03:45:10;3.92;;;2.30;;
21206;SDS011;10761;48.532;8.026;2022-08-01T03:47:38;4.32;;;2.53;;
21206;SDS011;10761;48.532;8.026;2022-08-01T03:50:08;3.72;;;2.53;;
21206;SDS011;10761;48.532;8.026;2022-08-01T03:52:36;3.88;;;2.30;;
21206;SDS011;10761;48.532;8.026;2022-08-01T03:55:05;4.22;;;2.50;;
21206;SDS011;10761;48.532;8.026;2022-08-01T03:57:32;4.05;;;2.50;;
21206;SDS011;10761;48.532;8.026;2022-08-01T03:59:59;4.80;;;2.85;;
21206;SDS011;10761;48.532;8.026;2022-08-01T04:02:28;4.47;;;2.80;;
21206;SDS011;10761;48.532;8.026;2022-08-01T04:04:54;5.03;;;2.80;;
21206;SDS011;10761;48.532;8.026;2022-08-01T04:07:27;3.13;;;2.42;;
21206;SDS011;10761;48.532;8.026;2022-08-01T04:09:54;5.30;;;2.30;;
21206;SDS011;10761;48.532;8.026;2022-08-01T04:12:21;4.97;;;2.50;;
21206;SDS011;10761;48.532;8.026;2022-08-01T04:14:47;4.57;;;2.65;;
21206;SDS011;10761;48.532;8.026;2022-08-01T04:17:13;6.38;;;2.80;;
21206;SDS011;10761;48.532;8.026;2022-08-01T04:19:42;3.63;;;2.67;;
21206;SDS011;10761;48.532;8.026;2022-08-01T04:22:10;4.85;;;2.40;;
21206;SDS011;10761;48.532;8.026;2022-08-01T04:24:38;3.60;;;2.35;;
21206;SDS011;10761;48.532;8.026;2022-08-01T04:27:06;2.53;;;2.20;;
21206;SDS011;10761;48.532;8.026;2022-08-01T04:29:36;6.10;;;2.33;;
21206;SDS011;10761;48.532;8.026;2022-08-01T04:32:03;2.75;;;2.28;;
21206;SDS011;10761;48.532;8.026;2022-08-01T04:34:32;5.32;;;2.45;;
21206;SDS011;10761;48.532;8.026;2022-08-01T04:36:58;5.32;;;2.25;;
21206;SDS011;10761;48.532;8.026;2022-08-01T04:39:26;4.47;;;2.20;;
21206;SDS011;10761;48.532;8.026;2022-08-01T04:41:53;2.53;;;2.30;;
21206;SDS011;10761;48.532;8.026;2022-08-01T04:44:23;6.15;;;2.42;;
21206;SDS011;10761;48.532;8.026;2022-08-01T04:46:49;2.50;;;2.30;;
21206;SDS011;10761;48.532;8.026;2022-08-01T04:49:19;2.15;;;1.95;;
21206;SDS011;10761;48.532;8.026;2022-08-01T04:51:52;2.60;;;2.33;;
21206;SDS011;10761;48.532;8.026;2022-08-01T04:54:30;3.80;;;2.30;;
21206;SDS011;10761;48.532;8.026;2022-08-01T04:56:59;7.22;;;2.20;;
21206;SDS011;10761;48.532;8.026;2022-08-01T04:59:28;4.25;;;2.30;;
21206;SDS011;10761;48.532;8.026;2022-08-01T05:02:14;5.95;;;2.55;;
21206;SDS011;10761;48.532;8.026;2022-08-01T05:04:41;2.72;;;2.17;;
21206;SDS011;10761;48.532;8.026;2022-08-01T05:07:08;7.60;;;2.50;;
21206;SDS011;10761;48.532;8.026;2022-08-01T05:09:35;7.88;;;2.50;;
21206;SDS011;10761;48.532;8.026;2022-08-01T05:12:01;2.53;;;2.25;;
21206;SDS011;10761;48.532;8.026;2022-08-01T05:14:29;4.25;;;2.40;;
21206;SDS011;10761;48.532;8.026;2022-08-01T05:17:04;4.40;;;2.47;;
21206;SDS011;10761;48.532;8.026;2022-08-01T05:19:32;9.23;;;2.50;;
21206;SDS011;10761;48.532;8.026;2022-08-01T05:21:58;3.25;;;2.10;;
21206;SDS011;10761;48.532;8.026;2022-08-01T05:24:26;8.52;;;2.40;;
21206;SDS011;10761;48.532;8.026;2022-08-01T05:26:55;8.07;;;2.40;;
21206;SDS011;10761;48.532;8.026;2022-08-01T05:29:21;2.65;;;2.15;;
21206;SDS011;10761;48.532;8.026;2022-08-01T05:31:47;4.47;;;2.22;;
21206;SDS011;10761;48.532;8.026;2022-08-01T05:34:12;2.42;;;2.20;;
21206;SDS011;10761;48.532;8.026;2022-08-01T05:36:38;3.15;;;2.10;;
21206;SDS011;10761;48.532;8.026;2022-08-01T05:39:04;4.93;;;2.30;;
21206;SDS011;10761;48.532;8.026;2022-08-01T05:41:30;3.35;;;2.03;;
21206;SDS011;10761;48.532;8.026;2022-08-01T05:43:55;2.95;;;1.98;;
21206;SDS011;10761;48.532;8.026;2022-08-01T05:46:21;2.33;;;2.10;;
21206;SDS011;10761;48.532;8.026;2022-08-01T05:48:47;4.32;;;2.30;;
21206;SDS011;10761;48.532;8.026;2022-08-01T05:51:12;2.15;;;1.95;;
21206;SDS011;10761;48.532;8.026;2022-08-01T05:53:38;4.95;;;2.22;;
21206;SDS011;10761;48.532;8.026;2022-08-01T05:56:04;3.47;;;1.95;;
21206;SDS011;10761;48.532;8.026;2022-08-01T05:58:29;2.22;;;2.00;;
21206;SDS011;10761;48.532;8.026;2022-08-01T06:00:55;3.95;;;2.20;;
21206;SDS011;10761;48.532;8.026;2022-08-01T06:03:21;3.35;;;1.88;;
21206;SDS011;10761;48.532;8.026;2022-08-01T06:05:46;3.47;;;1.90;;
21206;SDS011;10761;48.532;8.026;2022-08-01T06:08:12;2.45;;;2.22;;
21206;SDS011;10761;48.532;8.026;2022-08-01T06:10:37;3.35;;;1.83;;
21206;SDS011;10761;48.532;8.026;2022-08-01T06:13:03;3.75;;;1.90;;
21206;SDS011;10761;48.532;8.026;2022-08-01T06:15:29;3.35;;;1.85;;
21206;SDS011;10761;48.532;8.026;2022-08-01T06:17:56;4.75;;;1.67;;
21206;SDS011;10761;48.532;8.026;2022-08-01T06:20:21;3.70;;;2.00;;
21206;SDS011;10761;48.532;8.026;2022-08-01T06:22:47;4.60;;;1.85;;
21206;SDS011;10761;48.532;8.026;2022-08-01T06:25:12;6.00;;;1.90;;
21206;SDS011;10761;48.532;8.026;2022-08-01T06:27:38;2.85;;;2.10;;
21206;SDS011;10761;48.532;8.026;2022-08-01T06:30:04;2.33;;;2.00;;
21206;SDS011;10761;48.532;8.026;2022-08-01T06:32:32;5.90;;;1.95;;
21206;SDS011;10761;48.532;8.026;2022-08-01T06:34:58;4.53;;;1.90;;
21206;SDS011;10761;48.532;8.026;2022-08-01T06:37:27;1.48;;;1.38;;
21206;SDS011;10761;48.532;8.026;2022-08-01T06:39:54;5.10;;;1.77;;
21206;SDS011;10761;48.532;8.026;2022-08-01T06:42:23;3.63;;;1.70;;
21206;SDS011;10761;48.532;8.026;2022-08-01T06:44:49;4.00;;;1.60;;
21206;SDS011;10761;48.532;8.026;2022-08-01T06:47:14;2.45;;;1.50;;
21206;SDS011;10761;48.532;8.026;2022-08-01T06:49:40;3.47;;;1.80;;
21206;SDS011;10761;48.532;8.026;2022-08-01T06:52:05;1.88;;;1.40;;
21206;SDS011;10761;48.532;8.026;2022-08-01T06:54:31;2.50;;;1.30;;
21206;SDS011;10761;48.532;8.026;2022-08-01T06:56:57;1.70;;;1.40;;
21206;SDS011;10761;48.532;8.026;2022-08-01T06:59:22;1.33;;;1.23;;
21206;SDS011;10761;48.532;8.026;2022-08-01T07:01:48;1.55;;;1.27;;
21206;SDS011;10761;48.532;8.026;2022-08-01T07:04:13;1.83;;;1.33;;
21206;SDS011;10761;48.532;8.026;2022-08-01T07:06:39;3.13;;;1.45;;
21206;SDS011;10761;48.532;8.026;2022-08-01T07:09:05;2.42;;;1.20;;
21206;SDS011;10761;48.532;8.026;2022-08-01T07:11:30;2.80;;;1.60;;
21206;SDS011;10761;48.532;8.026;2022-08-01T07:13:56;1.20;;;1.10;;
21206;SDS011;10761;48.532;8.026;2022-08-01T07:16:22;4.55;;;1.67;;
21206;SDS011;10761;48.532;8.026;2022-08-01T07:18:47;1.88;;;1.55;;
21206;SDS011;10761;48.532;8.026;2022-08-01T07:21:13;2.47;;;1.60;;
21206;SDS011;10761;48.532;8.026;2022-08-01T07:23:38;3.25;;;1.40;;
21206;SDS011;10761;48.532;8.026;2022-08-01T07:26:04;3.10;;;1.50;;
21206;SDS011;10761;48.532;8.026;2022-08-01T07:28:31;3.65;;;1.67;;
21206;SDS011;10761;48.532;8.026;2022-08-01T07:30:57;2.10;;;1.40;;
21206;SDS011;10761;48.532;8.026;2022-08-01T07:33:22;4.60;;;1.60;;
21206;SDS011;10761;48.532;8.026;2022-08-01T07:35:48;2.70;;;1.20;;
21206;SDS011;10761;48.532;8.026;2022-08-01T07:38:14;4.03;;;1.30;;
21206;SDS011;10761;48.532;8.026;2022-08-01T07:40:41;2.80;;;1.50;;
21206;SDS011;10761;48.532;8.026;2022-08-01T07:43:07;1.33;;;1.13;;
21206;SDS011;10761;48.532;8.026;2022-08-01T07:45:33;1.67;;;1.17;;
21206;SDS011;10761;48.532;8.026;2022-08-01T07:48:03;4.45;;;1.80;;
21206;SDS011;10761;48.532;8.026;2022-08-01T07:50:29;1.90;;;1.60;;
21206;SDS011;10761;48.532;8.026;2022-08-01T07:52:55;5.43;;;1.80;;
21206;SDS011;10761;48.532;8.026;2022-08-01T07:55:20;4.10;;;1.65;;
21206;SDS011;10761;48.532;8.026;2022-08-01T07:57:46;5.03;;;1.80;;
21206;SDS011;10761;48.532;8.026;2022-08-01T08:00:12;3.33;;;1.83;;
21206;SDS011;10761;48.532;8.026;2022-08-01T08:02:38;3.67;;;1.60;;
21206;SDS011;10761;48.532;8.026;2022-08-01T08:05:04;3.28;;;1.80;;
21206;SDS011;10761;48.532;8.026;2022-08-01T08:07:31;5.53;;;2.00;;
21206;SDS011;10761;48.532;8.026;2022-08-01T08:09:57;7.65;;;1.90;;
21206;SDS011;10761;48.532;8.026;2022-08-01T08:12:23;2.65;;;1.70;;
21206;SDS011;10761;48.532;8.026;2022-08-01T08:14:48;3.72;;;1.80;;
21206;SDS011;10761;48.532;8.026;2022-08-01T08:17:14;3.90;;;1.70;;
21206;SDS011;10761;48.532;8.026;2022-08-01T08:19:40;4.88;;;1.40;;
21206;SDS011;10761;48.532;8.026;2022-08-01T08:22:06;2.95;;;1.63;;
21206;SDS011;10761;48.532;8.026;2022-08-01T08:24:33;3.17;;;1.40;;
21206;SDS011;10761;48.532;8.026;2022-08-01T08:27:00;2.47;;;1.70;;
21206;SDS011;10761;48.532;8.026;2022-08-01T08:29:27;3.42;;;1.50;;
21206;SDS011;10761;48.532;8.026;2022-08-01T08:31:54;2.60;;;1.45;;
21206;SDS011;10761;48.532;8.026;2022-08-01T08:34:20;1.50;;;1.40;;
21206;SDS011;10761;48.532;8.026;2022-08-01T08:36:47;2.15;;;1.60;;
21206;SDS011;10761;48.532;8.026;2022-08-01T08:39:16;2.13;;;1.65;;
21206;SDS011;10761;48.532;8.026;2022-08-01T08:41:42;1.83;;;1.60;;
21206;SDS011;10761;48.532;8.026;2022-08-01T08:44:08;4.68;;;1.83;;
21206;SDS011;10761;48.532;8.026;2022-08-01T08:46:42;2.55;;;1.80;;
21206;SDS011;10761;48.532;8.026;2022-08-01T08:49:12;7.63;;;1.70;;
21206;SDS011;10761;48.532;8.026;2022-08-01T08:51:41;2.33;;;1.75;;
21206;SDS011;10761;48.532;8.026;2022-08-01T08:54:09;5.18;;;1.80;;
21206;SDS011;10761;48.532;8.026;2022-08-01T08:56:36;4.25;;;2.40;;
21206;SDS011;10761;48.532;8.026;2022-08-01T08:59:03;5.70;;;2.30;;
21206;SDS011;10761;48.532;8.026;2022-08-01T09:01:29;4.25;;;2.83;;
21206;SDS011;10761;48.532;8.026;2022-08-01T09:03:57;2.72;;;2.20;;
21206;SDS011;10761;48.532;8.026;2022-08-01T09:06:23;3.97;;;2.10;;
21206;SDS011;10761;48.532;8.026;2022-08-01T09:08:49;2.45;;;2.25;;
21206;SDS011;10761;48.532;8.026;2022-08-01T09:11:15;2.70;;;2.50;;
21206;SDS011;10761;48.532;8.026;2022-08-01T09:13:41;4.00;;;2.28;;
21206;SDS011;10761;48.532;8.026;2022-08-01T09:17:01;5.22;;;2.30;;
21206;SDS011;10761;48.532;8.026;2022-08-01T09:19:38;3.88;;;2.40;;
21206;SDS011;10761;48.532;8.026;2022-08-01T09:22:06;3.35;;;2.40;;
21206;SDS011;10761;48.532;8.026;2022-08-01T09:24:35;4.60;;;2.63;;
21206;SDS011;10761;48.532;8.026;2022-08-01T09:27:15;3.50;;;2.63;;
21206;SDS011;10761;48.532;8.026;2022-08-01T09:29:42;4.15;;;2.65;;
21206;SDS011;10761;48.532;8.026;2022-08-01T09:32:09;4.90;;;2.72;;
21206;SDS011;10761;48.532;8.026;2022-08-01T09:34:35;2.75;;;2.55;;
21206;SDS011;10761;48.532;8.026;2022-08-01T09:37:01;5.10;;;2.92;;
21206;SDS011;10761;48.532;8.026;2022-08-01T09:39:31;3.67;;;2.50;;
21206;SDS011;10761;48.532;8.026;2022-08-01T09:42:18;3.50;;;2.60;;
21206;SDS011;10761;48.532;8.026;2022-08-01T09:44:48;7.57;;;2.67;;
21206;SDS011;10761;48.532;8.026;2022-08-01T09:47:14;5.30;;;3.00;;
21206;SDS011;10761;48.532;8.026;2022-08-01T09:49:41;4.30;;;2.67;;
21206;SDS011;10761;48.532;8.026;2022-08-01T09:54:38;3.08;;;2.70;;
21206;SDS011;10761;48.532;8.026;2022-08-01T09:57:11;3.08;;;2.50;;
21206;SDS011;10761;48.532;8.026;2022-08-01T09:59:38;3.25;;;2.80;;
21206;SDS011;10761;48.532;8.026;2022-08-01T10:02:07;4.03;;;2.75;;
21206;SDS011;10761;48.532;8.026;2022-08-01T10:04:34;3.53;;;2.67;;
21206;SDS011;10761;48.532;8.026;2022-08-01T10:07:04;10.65;;;2.90;;
21206;SDS011;10761;48.532;8.026;2022-08-01T10:09:32;6.20;;;2.95;;
21206;SDS011;10761;48.532;8.026;2022-08-01T10:12:00;5.70;;;2.90;;
21206;SDS011;10761;48.532;8.026;2022-08-01T10:14:26;2.80;;;2.60;;
21206;SDS011;10761;48.532;8.026;2022-08-01T10:16:53;4.03;;;2.70;;
21206;SDS011;10761;48.532;8.026;2022-08-01T10:19:22;3.70;;;2.53;;
21206;SDS011;10761;48.532;8.026;2022-08-01T10:21:49;2.80;;;2.60;;
21206;SDS011;10761;48.532;8.026;2022-08-01T10:24:19;3.83;;;2.30;;
21206;SDS011;10761;48.532;8.026;2022-08-01T10:26:47;4.75;;;2.47;;
21206;SDS011;10761;48.532;8.026;2022-08-01T10:29:17;3.00;;;2.70;;
21206;SDS011;10761;48.532;8.026;2022-08-01T10:31:45;3.78;;;2.40;;
21206;SDS011;10761;48.532;8.026;2022-08-01T10:34:12;2.83;;;2.60;;
21206;SDS011;10761;48.532;8.026;2022-08-01T10:36:41;2.88;;;2.40;;
21206;SDS011;10761;48.532;8.026;2022-08-01T10:39:09;3.92;;;2.40;;
21206;SDS011;10761;48.532;8.026;2022-08-01T10:41:36;2.60;;;2.40;;
21206;SDS011;10761;48.532;8.026;2022-08-01T10:44:03;2.55;;;2.28;;
21206;SDS011;10761;48.532;8.026;2022-08-01T10:46:37;2.75;;;2.47;;
21206;SDS011;10761;48.532;8.026;2022-08-01T10:49:06;3.40;;;2.42;;
21206;SDS011;10761;48.532;8.026;2022-08-01T10:51:36;6.47;;;2.33;;
21206;SDS011;10761;48.532;8.026;2022-08-01T10:54:05;3.78;;;2.38;;
21206;SDS011;10761;48.532;8.026;2022-08-01T10:57:05;2.63;;;2.42;;
21206;SDS011;10761;48.532;8.026;2022-08-01T10:59:25;5.35;;;2.45;;
21206;SDS011;10761;48.532;8.026;2022-08-01T11:01:58;4.63;;;2.60;;
21206;SDS011;10761;48.532;8.026;2022-08-01T11:07:05;3.70;;;2.70;;
21206;SDS011;10761;48.532;8.026;2022-08-01T11:09:45;3.22;;;2.92;;
21206;SDS011;10761;48.532;8.026;2022-08-01T11:12:13;2.63;;;2.35;;
21206;SDS011;10761;48.532;8.026;2022-08-01T11:20:05;2.90;;;2.58;;
21206;SDS011;10761;48.532;8.026;2022-08-01T11:25:27;2.50;;;2.28;;
21206;SDS011;10761;48.532;8.026;2022-08-01T11:30:42;3.30;;;2.30;;
21206;SDS011;10761;48.532;8.026;2022-08-01T11:33:09;6.13;;;2.40;;
21206;SDS011;10761;48.532;8.026;2022-08-01T11:35:36;2.63;;;2.28;;
21206;SDS011;10761;48.532;8.026;2022-08-01T11:38:22;2.72;;;2.40;;
21206;SDS011;10761;48.532;8.026;2022-08-01T11:43:33;2.78;;;2.35;;
21206;SDS011;10761;48.532;8.026;2022-08-01T11:45:59;4.85;;;2.53;;
21206;SDS011;10761;48.532;8.026;2022-08-01T11:48:26;2.50;;;2.22;;
21206;SDS011;10761;48.532;8.026;2022-08-01T11:50:56;2.50;;;2.30;;
21206;SDS011;10761;48.532;8.026;2022-08-01T11:53:22;2.72;;;2.53;;
21206;SDS011;10761;48.532;8.026;2022-08-01T11:55:49;2.78;;;2.50;;
21206;SDS011;10761;48.532;8.026;2022-08-01T11:58:19;3.53;;;2.33;;
21206;SDS011;10761;48.532;8.026;2022-08-01T12:00:53;5.10;;;2.65;;
21206;SDS011;10761;48.532;8.026;2022-08-01T12:03:26;3.10;;;2.80;;
21206;SDS011;10761;48.532;8.026;2022-08-01T12:05:54;4.45;;;2.60;;
21206;SDS011;10761;48.532;8.026;2022-08-01T12:08:27;5.13;;;3.03;;
21206;SDS011;10761;48.532;8.026;2022-08-01T12:11:02;3.17;;;2.88;;
21206;SDS011;10761;48.532;8.026;2022-08-01T12:13:38;3.33;;;2.75;;
21206;SDS011;10761;48.532;8.026;2022-08-01T12:16:07;5.03;;;2.90;;
21206;SDS011;10761;48.532;8.026;2022-08-01T12:18:40;2.95;;;2.53;;
21206;SDS011;10761;48.532;8.026;2022-08-01T12:21:07;3.25;;;2.42;;
21206;SDS011;10761;48.532;8.026;2022-08-01T12:23:33;3.15;;;2.33;;
21206;SDS011;10761;48.532;8.026;2022-08-01T12:25:58;4.00;;;2.30;;
21206;SDS011;10761;48.532;8.026;2022-08-01T12:28:25;4.07;;;2.40;;
21206;SDS011;10761;48.532;8.026;2022-08-01T12:30:50;2.83;;;2.50;;
21206;SDS011;10761;48.532;8.026;2022-08-01T12:33:17;3.15;;;2.85;;
21206;SDS011;10761;48.532;8.026;2022-08-01T12:35:43;4.88;;;2.05;;
21206;SDS011;10761;48.532;8.026;2022-08-01T12:38:20;4.20;;;2.28;;
21206;SDS011;10761;48.532;8.026;2022-08-01T12:40:48;2.78;;;2.40;;
21206;SDS011;10761;48.532;8.026;2022-08-01T12:43:18;3.05;;;2.60;;
21206;SDS011;10761;48.532;8.026;2022-08-01T12:45:46;3.08;;;2.50;;
21206;SDS011;10761;48.532;8.026;2022-08-01T12:48:15;5.28;;;2.40;;
21206;SDS011;10761;48.532;8.026;2022-08-01T12:50:43;3.92;;;2.40;;
21206;SDS011;10761;48.532;8.026;2022-08-01T12:53:10;2.78;;;2.58;;
21206;SDS011;10761;48.532;8.026;2022-08-01T12:55:45;3.58;;;2.60;;
21206;SDS011;10761;48.532;8.026;2022-08-01T12:58:14;2.45;;;2.22;;
21206;SDS011;10761;48.532;8.026;2022-08-01T13:00:41;3.20;;;2.38;;
21206;SDS011;10761;48.532;8.026;2022-08-01T13:03:18;2.17;;;2.08;;
21206;SDS011;10761;48.532;8.026;2022-08-01T13:08:29;5.25;;;2.22;;
21206;SDS011;10761;48.532;8.026;2022-08-01T13:11:03;5.40;;;2.50;;
21206;SDS011;10761;48.532;8.026;2022-08-01T13:13:50;2.40;;;2.20;;
21206;SDS011;10761;48.532;8.026;2022-08-01T13:16:17;3.22;;;2.35;;
21206;SDS011;10761;48.532;8.026;2022-08-01T13:18:49;2.28;;;2.00;;
21206;SDS011;10761;48.532;8.026;2022-08-01T13:21:19;4.28;;;2.13;;
21206;SDS011;10761;48.532;8.026;2022-08-01T13:29:09;6.70;;;2.20;;
21206;SDS011;10761;48.532;8.026;2022-08-01T13:31:36;2.78;;;2.13;;
21206;SDS011;10761;48.532;8.026;2022-08-01T13:34:02;3.47;;;2.40;;
21206;SDS011;10761;48.532;8.026;2022-08-01T13:36:28;3.42;;;2.20;;
21206;SDS011;10761;48.532;8.026;2022-08-01T13:38:54;2.97;;;2.40;;
21206;SDS011;10761;48.532;8.026;2022-08-01T13:41:39;5.43;;;1.90;;
21206;SDS011;10761;48.532;8.026;2022-08-01T13:44:04;3.90;;;2.10;;
21206;SDS011;10761;48.532;8.026;2022-08-01T13:46:31;2.10;;;2.00;;
21206;SDS011;10761;48.532;8.026;2022-08-01T13:48:56;4.05;;;2.10;;
21206;SDS011;10761;48.532;8.026;2022-08-01T13:51:22;7.13;;;1.90;;
21206;SDS011;10761;48.532;8.026;2022-08-01T13:53:48;3.05;;;1.90;;
21206;SDS011;10761;48.532;8.026;2022-08-01T13:56:13;2.38;;;1.70;;
21206;SDS011;10761;48.532;8.026;2022-08-01T13:58:41;3.38;;;1.60;;
21206;SDS011;10761;48.532;8.026;2022-08-01T14:01:06;6.07;;;2.05;;
21206;SDS011;10761;48.532;8.026;2022-08-01T14:03:32;6.10;;;1.85;;
21206;SDS011;10761;48.532;8.026;2022-08-01T14:05:57;1.50;;;1.40;;
21206;SDS011;10761;48.532;8.026;2022-08-01T14:08:23;3.92;;;1.52;;
21206;SDS011;10761;48.532;8.026;2022-08-01T14:10:49;1.70;;;1.60;;
21206;SDS011;10761;48.532;8.026;2022-08-01T14:13:14;11.07;;;1.95;;
21206;SDS011;10761;48.532;8.026;2022-08-01T14:15:43;3.78;;;1.67;;
21206;SDS011;10761;48.532;8.026;2022-08-01T14:18:08;4.03;;;1.50;;
21206;SDS011;10761;48.532;8.026;2022-08-01T14:20:34;3.45;;;1.70;;
21206;SDS011;10761;48.532;8.026;2022-08-01T14:23:00;1.65;;;1.30;;
21206;SDS011;10761;48.532;8.026;2022-08-01T14:25:26;2.35;;;1.30;;
21206;SDS011;10761;48.532;8.026;2022-08-01T14:27:52;2.85;;;1.42;;
21206;SDS011;10761;48.532;8.026;2022-08-01T14:30:18;2.83;;;1.40;;
21206;SDS011;10761;48.532;8.026;2022-08-01T14:32:44;1.70;;;1.60;;
21206;SDS011;10761;48.532;8.026;2022-08-01T14:35:09;2.92;;;1.40;;
21206;SDS011;10761;48.532;8.026;2022-08-01T14:37:35;3.97;;;1.38;;
21206;SDS011;10761;48.532;8.026;2022-08-01T14:40:01;3.85;;;1.30;;
21206;SDS011;10761;48.532;8.026;2022-08-01T14:42:30;2.85;;;1.30;;
21206;SDS011;10761;48.532;8.026;2022-08-01T14:44:56;3.17;;;1.30;;
21206;SDS011;10761;48.532;8.026;2022-08-01T14:47:22;1.98;;;1.30;;
21206;SDS011;10761;48.532;8.026;2022-08-01T14:49:48;1.52;;;1.40;;
21206;SDS011;10761;48.532;8.026;2022-08-01T14:52:14;3.35;;;1.20;;
21206;SDS011;10761;48.532;8.026;2022-08-01T14:54:40;4.32;;;1.38;;
21206;SDS011;10761;48.532;8.026;2022-08-01T14:57:06;3.58;;;1.40;;
21206;SDS011;10761;48.532;8.026;2022-08-01T14:59:31;4.82;;;1.17;;
21206;SDS011;10761;48.532;8.026;2022-08-01T15:01:57;2.35;;;1.00;;
21206;SDS011;10761;48.532;8.026;2022-08-01T15:04:22;2.28;;;1.17;;
21206;SDS011;10761;48.532;8.026;2022-08-01T15:06:48;2.55;;;1.00;;
21206;SDS011;10761;48.532;8.026;2022-08-01T15:09:14;3.92;;;1.10;;
21206;SDS011;10761;48.532;8.026;2022-08-01T15:11:39;1.40;;;1.10;;
21206;SDS011;10761;48.532;8.026;2022-08-01T15:14:05;1.35;;;1.02;;
21206;SDS011;10761;48.532;8.026;2022-08-01T15:16:53;3.28;;;1.00;;
21206;SDS011;10761;48.532;8.026;2022-08-01T15:19:19;1.10;;;1.00;;
21206;SDS011;10761;48.532;8.026;2022-08-01T15:21:45;4.32;;;1.20;;
21206;SDS011;10761;48.532;8.026;2022-08-01T15:24:10;3.55;;;0.85;;
21206;SDS011;10761;48.532;8.026;2022-08-01T15:26:36;3.50;;;1.10;;
21206;SDS011;10761;48.532;8.026;2022-08-01T15:29:01;1.27;;;1.05;;